createdAt,value
2022-10-17T00:00:40.613Z,11.3
2022-10-17T00:03:40.602Z,11.3
2022-10-17T00:06:40.635Z,11.2
2022-10-17T00:09:40.620Z,11.2
2022-10-17T00:12:40.623Z,11.2
2022-10-17T00:15:40.631Z,11.1
2022-10-17T00:18:40.638Z,11.1
2022-10-17T00:21:40.645Z,11.1
2022-10-17T00:24:40.678Z,11.1
2022-10-17T00:27:40.656Z,11
2022-10-17T00:30:40.664Z,11
2022-10-17T00:33:40.676Z,11
2022-10-17T00:36:40.680Z,11
2022-10-17T00:39:40.684Z,11
2022-10-17T00:42:40.721Z,10.9
2022-10-17T00:45:40.701Z,10.9
2022-10-17T00:48:40.704Z,10.9
2022-10-17T00:51:40.712Z,10.9
2022-10-17T00:54:40.722Z,11
2022-10-17T00:57:40.725Z,11
2022-10-17T01:00:40.756Z,11
2022-10-17T01:03:40.742Z,10.9
2022-10-17T01:06:40.749Z,10.9
2022-10-17T01:09:40.758Z,10.9
2022-10-17T01:12:40.767Z,10.9
2022-10-17T01:15:40.774Z,11
2022-10-17T01:18:40.802Z,11.1
2022-10-17T01:21:40.790Z,11.2
2022-10-17T01:24:40.801Z,11.1
2022-10-17T01:27:40.804Z,11.1
2022-10-17T01:30:40.809Z,11
2022-10-17T01:33:40.819Z,11
2022-10-17T01:36:40.853Z,10.9
2022-10-17T01:39:42.714Z,10.9
2022-10-17T01:42:40.849Z,10.9
2022-10-17T01:45:40.859Z,10.9
2022-10-17T01:48:40.864Z,10.9
2022-10-17T01:51:40.873Z,10.8
2022-10-17T01:54:40.922Z,10.8
2022-10-17T01:57:40.891Z,10.8
2022-10-17T02:00:40.904Z,10.8
2022-10-17T02:03:40.921Z,10.8
2022-10-17T02:06:40.944Z,10.8
2022-10-17T02:09:40.938Z,10.7
2022-10-17T02:12:40.972Z,10.7
2022-10-17T02:15:40.961Z,10.7
2022-10-17T02:18:40.973Z,10.6
2022-10-17T02:21:40.980Z,10.6
2022-10-17T02:24:40.994Z,10.6
2022-10-17T02:27:41.003Z,10.5
2022-10-17T02:30:41.031Z,10.5
2022-10-17T02:33:41.024Z,10.5
2022-10-17T02:36:41.042Z,10.4
2022-10-17T02:39:41.046Z,10.4
2022-10-17T02:42:41.059Z,10.5
2022-10-17T02:45:41.056Z,10.4
2022-10-17T02:48:41.101Z,10.5
2022-10-17T02:51:41.089Z,10.5
2022-10-17T02:54:41.100Z,10.5
2022-10-17T02:57:41.111Z,10.5
2022-10-17T03:00:41.122Z,10.4
2022-10-17T03:03:41.128Z,10.3
2022-10-17T03:06:41.163Z,10.3
2022-10-17T03:09:41.152Z,10.2
2022-10-17T03:12:41.165Z,10.2
2022-10-17T03:15:41.174Z,10.3
2022-10-17T03:18:41.190Z,10.3
2022-10-17T03:21:41.197Z,10.3
2022-10-17T03:24:41.240Z,10.3
2022-10-17T03:27:41.225Z,10.3
2022-10-17T03:30:41.237Z,10.2
2022-10-17T03:33:41.247Z,10.2
2022-10-17T03:36:41.272Z,10.2
2022-10-17T03:39:41.271Z,10.2
2022-10-17T03:42:41.305Z,10.2
2022-10-17T03:45:41.302Z,10.2
2022-10-17T03:48:41.309Z,10.2
2022-10-17T03:51:41.319Z,10.2
2022-10-17T03:54:41.331Z,10.2
2022-10-17T03:57:42.287Z,10.1
2022-10-17T04:00:41.374Z,10.1
2022-10-17T04:03:41.372Z,10.2
2022-10-17T04:06:41.393Z,10.2
2022-10-17T04:09:41.393Z,10.2
2022-10-17T04:12:41.395Z,10.2
2022-10-17T04:15:41.409Z,10.2
2022-10-17T04:18:41.442Z,10.2
2022-10-17T04:21:41.448Z,10.2
2022-10-17T04:24:41.438Z,10.2
2022-10-17T04:27:41.440Z,10.2
2022-10-17T04:30:42.371Z,10.2
2022-10-17T04:33:41.473Z,10.2
2022-10-17T04:36:41.520Z,10.2
2022-10-17T04:39:41.498Z,10.1
2022-10-17T04:42:41.511Z,10
2022-10-17T04:45:41.521Z,10
2022-10-17T04:48:41.527Z,9.9
2022-10-17T04:51:41.552Z,9.8
2022-10-17T04:54:41.583Z,9.7
2022-10-17T04:57:41.562Z,9.6
2022-10-17T05:00:41.598Z,9.7
2022-10-17T05:03:41.580Z,9.6
2022-10-17T05:06:41.629Z,9.6
2022-10-17T05:09:41.605Z,9.5
2022-10-17T05:12:41.642Z,9.4
2022-10-17T05:15:41.626Z,9.5
2022-10-17T05:18:41.640Z,9.5
2022-10-17T05:21:41.673Z,9.5
2022-10-17T05:24:41.655Z,9.6
2022-10-17T05:27:41.669Z,9.6
2022-10-17T05:30:41.705Z,9.6
2022-10-17T05:33:41.694Z,9.5
2022-10-17T05:36:41.707Z,9.5
2022-10-17T05:39:41.711Z,9.5
2022-10-17T05:42:41.715Z,9.5
2022-10-17T05:45:41.722Z,9.5
2022-10-17T05:48:41.764Z,9.5
2022-10-17T05:51:41.761Z,9.5
2022-10-17T05:54:41.749Z,9.5
2022-10-17T05:57:41.761Z,9.5
2022-10-17T06:00:41.819Z,9.5
2022-10-17T06:03:41.773Z,9.5
2022-10-17T06:06:41.818Z,9.6
2022-10-17T06:09:41.836Z,9.7
2022-10-17T06:12:41.791Z,9.8
2022-10-17T06:15:41.805Z,9.9
2022-10-17T06:18:41.874Z,10
2022-10-17T06:21:41.827Z,10.1
2022-10-17T06:24:41.844Z,10.1
2022-10-17T06:27:41.845Z,10.2
2022-10-17T06:30:41.845Z,10.3
2022-10-17T06:33:41.841Z,10.3
2022-10-17T06:36:41.870Z,10.5
2022-10-17T06:39:41.917Z,10.6
2022-10-17T06:42:42.068Z,10.6
2022-10-17T06:45:41.881Z,10.7
2022-10-17T06:48:41.871Z,10.9
2022-10-17T06:51:41.893Z,11.1
2022-10-17T06:54:41.888Z,11.3
2022-10-17T06:57:41.895Z,11.4
2022-10-17T07:00:42.072Z,11.5
2022-10-17T07:03:41.911Z,11.7
2022-10-17T07:06:41.925Z,11.9
2022-10-17T07:09:41.928Z,12.1
2022-10-17T07:12:41.927Z,12.4
2022-10-17T07:15:41.930Z,12.9
2022-10-17T07:18:41.968Z,13.2
2022-10-17T07:21:41.958Z,13.4
2022-10-17T07:24:41.960Z,13.7
2022-10-17T07:27:41.956Z,13.8
2022-10-17T07:30:41.960Z,14
2022-10-17T07:33:42.031Z,14.2
2022-10-17T07:36:42.004Z,14.3
2022-10-17T07:39:41.970Z,14.3
2022-10-17T07:42:41.978Z,14.4
2022-10-17T07:45:41.985Z,14.4
2022-10-17T07:48:41.988Z,14.3
2022-10-17T07:51:42.055Z,14.3
2022-10-17T07:54:42.015Z,14.3
2022-10-17T07:57:41.997Z,14.3
2022-10-17T08:00:42.072Z,14.3
2022-10-17T08:03:42.005Z,14.5
2022-10-17T08:06:42.025Z,14.8
2022-10-17T08:09:42.014Z,15
2022-10-17T08:12:42.051Z,15
2022-10-17T08:15:42.028Z,15
2022-10-17T08:18:42.029Z,15.3
2022-10-17T08:21:42.045Z,15.4
2022-10-17T08:24:42.028Z,15.7
2022-10-17T08:27:42.040Z,15.8
2022-10-17T08:30:42.061Z,16.1
2022-10-17T08:33:42.046Z,16.1
2022-10-17T08:36:42.057Z,16.1
2022-10-17T08:39:42.048Z,15.9
2022-10-17T08:42:42.044Z,16
2022-10-17T08:45:42.047Z,16.1
2022-10-17T08:48:43.931Z,16
2022-10-17T08:51:42.067Z,16.1
2022-10-17T08:54:42.055Z,16.1
2022-10-17T08:57:42.056Z,16.2
2022-10-17T09:00:42.065Z,16.2
2022-10-17T09:03:42.060Z,16.2
2022-10-17T09:06:42.171Z,16.3
2022-10-17T09:09:42.063Z,16.4
2022-10-17T09:12:42.065Z,16.5
2022-10-17T09:15:42.069Z,16.4
2022-10-17T09:18:42.074Z,16.6
2022-10-17T09:21:42.100Z,16.8
2022-10-17T09:24:42.122Z,17
2022-10-17T09:27:42.109Z,17
2022-10-17T09:30:46.109Z,17
2022-10-17T09:33:53.690Z,17
2022-10-17T09:36:42.147Z,17
2022-10-17T09:39:42.147Z,17
2022-10-17T09:42:42.179Z,17
2022-10-17T09:45:42.173Z,16.9
2022-10-17T09:48:42.233Z,16.9
2022-10-17T09:51:42.217Z,16.7
2022-10-17T09:54:42.229Z,16.8
2022-10-17T09:57:42.242Z,17
2022-10-17T10:00:42.361Z,17
2022-10-17T10:03:42.268Z,16.9
2022-10-17T10:06:42.291Z,16.8
2022-10-17T10:09:42.285Z,16.8
2022-10-17T10:12:42.303Z,16.6
2022-10-17T10:15:42.319Z,16.5
2022-10-17T10:18:42.373Z,16.4
2022-10-17T10:21:45.111Z,16.4
2022-10-17T10:24:42.356Z,16.4
2022-10-17T10:27:42.375Z,16.5
2022-10-17T10:30:42.388Z,16.6
2022-10-17T10:33:43.516Z,16.7
2022-10-17T10:36:42.458Z,16.6
2022-10-17T10:39:42.442Z,16.6
2022-10-17T10:42:42.461Z,16.8
2022-10-17T10:45:47.810Z,16.9
2022-10-17T10:48:42.490Z,16.7
2022-10-17T10:51:42.521Z,16.5
2022-10-17T10:54:42.549Z,16.3
2022-10-17T10:57:42.541Z,16.2
2022-10-17T11:00:42.580Z,16.2
2022-10-17T11:03:42.569Z,16.5
2022-10-17T11:06:42.600Z,16.5
2022-10-17T11:09:42.600Z,16.6
2022-10-17T11:12:42.645Z,16.8
2022-10-17T11:15:42.622Z,16.9
2022-10-17T11:18:42.648Z,17.1
2022-10-17T11:21:42.686Z,17
2022-10-17T11:24:42.687Z,16.9
2022-10-17T11:27:42.702Z,16.9
2022-10-17T11:30:42.744Z,16.8
2022-10-17T11:33:42.750Z,16.6
2022-10-17T11:36:42.772Z,16.1
2022-10-17T11:39:42.818Z,16.2
2022-10-17T11:42:42.799Z,16.1
2022-10-17T11:45:42.821Z,15.7
2022-10-17T11:48:42.851Z,15.7
2022-10-17T11:52:00.153Z,15.6
2022-10-17T11:54:42.849Z,15.8
2022-10-17T11:57:42.862Z,15.8
2022-10-17T12:00:45.116Z,16
2022-10-17T12:03:42.887Z,16
2022-10-17T12:06:42.919Z,15.9
2022-10-17T12:09:42.904Z,15.9
2022-10-17T12:12:42.908Z,15.9
2022-10-17T12:15:46.510Z,15.6
2022-10-17T12:18:42.927Z,15.4
2022-10-17T12:21:43.547Z,15.6
2022-10-17T12:24:42.978Z,15.5
2022-10-17T12:27:42.979Z,15.6
2022-10-17T12:30:42.976Z,15.7
2022-10-17T12:33:42.990Z,15.7
2022-10-17T12:36:43.021Z,15.5
2022-10-17T12:39:43.029Z,15.6
2022-10-17T12:42:43.066Z,15.6
2022-10-17T12:45:43.050Z,15.7
2022-10-17T12:48:43.052Z,15.6
2022-10-17T12:51:43.072Z,15.5
2022-10-17T12:54:47.919Z,15.5
2022-10-17T12:57:43.085Z,15.7
2022-10-17T13:00:46.523Z,15.5
2022-10-17T13:03:43.097Z,15.8
2022-10-17T13:06:43.122Z,15.5
2022-10-17T13:09:43.134Z,15.3
2022-10-17T13:12:43.145Z,15.3
2022-10-17T13:15:43.155Z,15.5
2022-10-17T13:18:43.196Z,15.6
2022-10-17T13:21:43.197Z,15.4
2022-10-17T13:24:43.191Z,15.5
2022-10-17T13:27:43.212Z,15.6
2022-10-17T13:30:43.226Z,15.5
2022-10-17T13:33:43.246Z,15.4
2022-10-17T13:36:46.670Z,15.4
2022-10-17T13:39:55.113Z,15.2
2022-10-17T13:42:43.285Z,15.4
2022-10-17T13:45:43.296Z,15.4
2022-10-17T13:48:43.302Z,15.3
2022-10-17T13:51:43.333Z,15.4
2022-10-17T13:54:43.354Z,15.5
2022-10-17T13:57:43.348Z,15.3
2022-10-17T14:00:43.372Z,15.4
2022-10-17T14:03:48.461Z,15.4
2022-10-17T14:06:44.939Z,15.4
2022-10-17T14:09:43.400Z,15.4
2022-10-17T14:12:43.441Z,15.3
2022-10-17T14:15:43.439Z,15.2
2022-10-17T14:18:43.457Z,15.2
2022-10-17T14:21:44.736Z,15.2
2022-10-17T14:24:43.485Z,15.3
2022-10-17T14:27:43.503Z,15.3
2022-10-17T14:30:58.835Z,15.3
2022-10-17T14:33:44.038Z,15.3
2022-10-17T14:36:43.571Z,15.4
2022-10-17T14:39:43.549Z,15.4
2022-10-17T14:42:43.567Z,15.4
2022-10-17T14:45:44.643Z,15.4
2022-10-17T14:48:43.649Z,15.4
2022-10-17T14:51:50.158Z,15.4
2022-10-17T14:54:43.664Z,15.4
2022-10-17T14:57:43.656Z,15.5
2022-10-17T15:00:43.672Z,15.5
2022-10-17T15:03:43.732Z,15.5
2022-10-17T15:06:43.766Z,15.5
2022-10-17T15:09:43.716Z,15.5
2022-10-17T15:12:47.883Z,15.5
2022-10-17T15:15:43.799Z,15.5
2022-10-17T15:18:43.754Z,15.5
2022-10-17T15:21:47.149Z,15.5
2022-10-17T15:24:43.817Z,15.5
2022-10-17T15:27:43.807Z,15.5
2022-10-17T15:30:43.816Z,15.5
2022-10-17T15:33:43.843Z,15.6
2022-10-17T15:36:43.884Z,15.5
2022-10-17T15:39:43.879Z,15.5
2022-10-17T15:42:43.959Z,15.5
2022-10-17T15:45:43.910Z,15.5
2022-10-17T15:48:43.923Z,15.5
2022-10-17T15:51:43.952Z,15.5
2022-10-17T15:54:43.965Z,15.5
2022-10-17T15:57:43.976Z,15.6
2022-10-17T16:00:44.104Z,15.5
2022-10-17T16:03:44.026Z,15.5
2022-10-17T16:06:44.037Z,15.5
2022-10-17T16:09:44.042Z,15.5
2022-10-17T16:12:44.053Z,15.6
2022-10-17T16:15:44.069Z,15.6
2022-10-17T16:18:44.109Z,15.6
2022-10-17T16:21:44.114Z,15.6
2022-10-17T16:24:44.123Z,15.6
2022-10-17T16:27:44.138Z,15.6
2022-10-17T16:30:44.167Z,15.5
2022-10-17T16:33:44.174Z,15.6
2022-10-17T16:36:44.239Z,15.5
2022-10-17T16:39:44.216Z,15.5
2022-10-17T16:42:44.234Z,15.5
2022-10-17T16:45:44.248Z,15.5
2022-10-17T16:48:44.273Z,15.5
2022-10-17T16:51:44.304Z,15.5
2022-10-17T16:54:44.341Z,15.5
2022-10-17T17:00:44.417Z,15.5
2022-10-17T17:03:44.366Z,15.5
2022-10-17T17:09:44.390Z,15.5
2022-10-17T17:12:44.436Z,15.5
2022-10-17T17:18:44.447Z,15.5
2022-10-17T17:21:44.471Z,15.5
2022-10-17T17:24:44.518Z,15.5
2022-10-17T17:27:44.508Z,15.5
2022-10-17T17:30:44.552Z,15.5
2022-10-17T17:33:44.582Z,15.5
2022-10-17T17:36:44.577Z,15.5
2022-10-17T17:39:44.586Z,15.5
2022-10-17T17:42:44.610Z,15.5
2022-10-17T17:45:44.636Z,15.5
2022-10-17T17:48:44.674Z,15.5
2022-10-17T17:51:44.665Z,15.5
2022-10-17T17:54:44.665Z,15.5
2022-10-17T17:57:44.694Z,15.5
2022-10-17T18:00:44.705Z,15.6
2022-10-17T18:03:44.723Z,15.5
2022-10-17T18:06:44.789Z,15.6
2022-10-17T18:09:44.770Z,15.6
2022-10-17T18:12:44.785Z,15.6
2022-10-17T18:15:44.797Z,15.7
2022-10-17T18:18:44.820Z,15.7
2022-10-17T18:21:44.856Z,15.7
2022-10-17T18:24:44.886Z,15.7
2022-10-17T18:27:44.880Z,15.7
2022-10-17T18:30:44.900Z,15.7
2022-10-17T18:33:44.917Z,15.8
2022-10-17T18:36:44.951Z,15.8
2022-10-17T18:39:44.958Z,15.8
2022-10-17T18:42:45.002Z,15.9
2022-10-17T18:45:44.999Z,16
2022-10-17T18:48:44.997Z,16
2022-10-17T18:51:45.045Z,15.9
2022-10-17T18:54:45.055Z,15.9
2022-10-17T18:57:45.068Z,15.9
2022-10-17T19:00:45.107Z,15.9
2022-10-17T19:03:45.105Z,15.9
2022-10-17T19:06:45.133Z,15.9
2022-10-17T19:09:45.136Z,15.9
2022-10-17T19:12:45.159Z,15.9
2022-10-17T19:15:45.178Z,15.9
2022-10-17T19:18:45.234Z,15.9
2022-10-17T19:21:45.234Z,15.9
2022-10-17T19:24:45.236Z,15.9
2022-10-17T19:27:45.258Z,15.9
2022-10-17T19:30:45.288Z,15.9
2022-10-17T19:33:45.304Z,15.9
2022-10-17T19:36:45.385Z,15.9
2022-10-17T19:39:45.347Z,15.9
2022-10-17T19:42:45.352Z,15.9
2022-10-17T19:45:45.361Z,15.9
2022-10-17T19:48:45.366Z,15.8
2022-10-17T19:51:45.375Z,15.8
2022-10-17T19:54:45.393Z,15.8
2022-10-17T19:57:45.371Z,15.8
2022-10-17T20:00:45.363Z,15.8
2022-10-17T20:03:45.375Z,15.8
2022-10-17T20:06:45.380Z,15.8
2022-10-17T20:09:45.374Z,15.8
2022-10-17T20:12:45.406Z,15.8
2022-10-17T20:15:45.371Z,15.8
2022-10-17T20:18:45.379Z,15.8
2022-10-17T20:21:45.392Z,15.9
2022-10-17T20:24:45.377Z,15.8
2022-10-17T20:27:45.377Z,15.8
2022-10-17T20:30:45.406Z,15.8
2022-10-17T20:33:45.384Z,15.8
2022-10-17T20:36:45.392Z,15.8
2022-10-17T20:39:45.383Z,15.8
2022-10-17T20:42:45.386Z,15.8
2022-10-17T20:45:50.586Z,15.9
2022-10-17T20:48:45.417Z,15.8
2022-10-17T20:51:45.407Z,15.8
2022-10-17T20:54:45.395Z,15.8
2022-10-17T20:57:45.394Z,15.8
2022-10-17T21:00:45.408Z,15.8
2022-10-17T21:03:46.398Z,15.8
2022-10-17T21:06:45.450Z,15.8
2022-10-17T21:09:45.407Z,15.9
2022-10-17T21:12:53.808Z,15.9
2022-10-17T21:15:45.413Z,15.9
2022-10-17T21:18:45.417Z,15.9
2022-10-17T21:21:45.424Z,15.9
2022-10-17T21:24:45.471Z,15.8
2022-10-17T21:27:45.423Z,15.8
2022-10-17T21:30:45.438Z,15.8
2022-10-17T21:33:45.438Z,15.8
2022-10-17T21:36:45.457Z,15.8
2022-10-17T21:39:45.442Z,15.8
2022-10-17T21:42:45.478Z,15.8
2022-10-17T21:45:45.448Z,15.9
2022-10-17T21:48:45.465Z,15.9
2022-10-17T21:51:45.464Z,15.9
2022-10-17T21:54:45.465Z,15.9
2022-10-17T21:57:45.471Z,15.9
2022-10-17T22:00:45.491Z,15.9
2022-10-17T22:03:46.568Z,15.9
2022-10-17T22:06:45.492Z,15.9
2022-10-17T22:09:45.484Z,15.9
2022-10-17T22:12:45.482Z,15.9
2022-10-17T22:15:45.487Z,15.9
2022-10-17T22:18:45.518Z,15.9
2022-10-17T22:21:45.502Z,15.9
2022-10-17T22:24:45.509Z,15.9
2022-10-17T22:27:45.508Z,15.9
2022-10-17T22:30:45.512Z,15.9
2022-10-17T22:33:45.512Z,15.8
2022-10-17T22:36:45.557Z,15.9
2022-10-17T22:39:45.527Z,15.8
2022-10-17T22:42:45.531Z,15.8
2022-10-17T22:45:45.532Z,15.8
2022-10-17T22:48:45.540Z,15.9
2022-10-17T22:51:45.563Z,15.8
2022-10-17T22:54:45.572Z,15.8
2022-10-17T22:57:45.553Z,15.8
2022-10-17T23:00:45.560Z,15.8
2022-10-17T23:03:45.558Z,15.8
2022-10-17T23:06:45.579Z,15.8
2022-10-17T23:09:45.583Z,15.8
2022-10-17T23:12:45.689Z,15.7
2022-10-17T23:15:45.588Z,15.7
2022-10-17T23:18:45.596Z,15.7
2022-10-17T23:21:45.637Z,15.7
2022-10-17T23:24:45.608Z,15.7
2022-10-17T23:27:45.615Z,15.7
2022-10-17T23:30:45.650Z,15.7
2022-10-17T23:33:45.636Z,15.7
2022-10-17T23:36:45.649Z,15.7
2022-10-17T23:39:45.631Z,15.7
2022-10-17T23:42:45.644Z,15.6
2022-10-17T23:45:45.643Z,15.6
2022-10-17T23:48:45.725Z,15.6
2022-10-17T23:51:45.672Z,15.6
2022-10-17T23:54:45.668Z,15.6
2022-10-17T23:57:45.676Z,15.6
